PWSweather.com
Personal Weather Stations
Station Observations

CefaluIT

Lat: 38.0324, Lon: 14.02837

Elevation: 92

Station Type: LACROSSE WS 2350

http://www.meteocefalu.altervista.org

Latest ConditionsUpdated 3:10:08 AM GMT+01:01 Tuesday, Mar 28, 2017
Currently Today's Max Today's Min Today's Average
Temperature 53.2°F11.8°C 55.2°F12.9°C 49.8°F9.9°C 52.1°F11.2°C
Dew Point 47.2°F8.4°C 48.8°F9.3°C 44.9°F7.2°C 46.8°F8.2°C
Winds 8.3 mph SW13.4 kmh SW 8.3 mph SW13.4 kmh SW - 4.6 mph 7.4 kmh
Wind Gusts 8.3 mph13.4 kmh 8.3 mph13.4 kmh - -
Humidity 80% 85% 77% 82%
Pressure 29.98 in1015.2 mb 30.01 in1016.3 mb 29.98 in1015.2 mb -
Precipitation - 0.49 in12.4 mm - -
Hour Temp Dew Point Humidity Winds Wind Gusts Pressure Precip Precip Rate Daily Precip Total
03:10 AM 53.2°F11.8°C 47.2°F8.4°C 80% 8.3 mph SW13.4 kmh SW 8.3 mph13.4 kmh 29.98 in1015.2 mb - 0.00 in0.0 mm 0.49 in12.4 mm
03:00 AM 53.2°F11.8°C 47.2°F8.4°C 80% 8.3 mph SW13.4 kmh SW 8.3 mph13.4 kmh 29.98 in1015.2 mb - 0.00 in0.0 mm 0.49 in12.4 mm
02:50 AM 53.2°F11.8°C 47.2°F8.4°C 80% 8.3 mph SW13.4 kmh SW 8.3 mph13.4 kmh 29.98 in1015.2 mb - 0.00 in0.0 mm 0.49 in12.4 mm
02:40 AM 53.2°F11.8°C 47.9°F8.8°C 82% 1.8 mph NW2.9 kmh NW -- 29.98 in1015.2 mb - 0.00 in0.0 mm 0.49 in12.4 mm
02:30 AM 52.9°F11.6°C 47.5°F8.6°C 82% 4.8 mph WSW7.7 kmh WSW 4.7 mph7.6 kmh 29.99 in1015.6 mb - 0.00 in0.0 mm 0.49 in12.4 mm
02:20 AM 52.0°F11.1°C 47.3°F8.5°C 84% 1.3 mph E2.1 kmh E 1.3 mph2.1 kmh 29.99 in1015.6 mb - 0.00 in0.0 mm 0.49 in12.4 mm
02:10 AM 52.0°F11.1°C 47.3°F8.5°C 84% 2.8 mph S4.5 kmh S 3.1 mph5.0 kmh 30.00 in1015.9 mb - 0.00 in0.0 mm 0.49 in12.4 mm
02:00 AM 52.2°F11.2°C 47.5°F8.6°C 84% 3.8 mph SSW6.1 kmh SSW 3.8 mph6.1 kmh 30.00 in1015.9 mb - 0.00 in0.0 mm 0.49 in12.4 mm
01:50 AM 51.7°F10.9°C 47.3°F8.5°C 85% 3.9 mph S6.3 kmh S 4.9 mph7.9 kmh 30.00 in1015.9 mb - 0.00 in0.0 mm 0.49 in12.4 mm
01:40 AM 51.6°F10.9°C 47.3°F8.5°C 85% 5.1 mph SW8.2 kmh SW 5.1 mph8.2 kmh 30.00 in1015.9 mb - 0.00 in0.0 mm 0.49 in12.4 mm
01:30 AM 51.3°F10.7°C 46.9°F8.3°C 85% 5.1 mph SW8.2 kmh SW 5.1 mph8.2 kmh 30.00 in1015.9 mb - 0.00 in0.0 mm 0.49 in12.4 mm
01:20 AM 51.0°F10.6°C 46.3°F7.9°C 84% 1.0 mph S1.6 kmh S 1.1 mph1.8 kmh 30.00 in1015.9 mb - 0.00 in0.0 mm 0.49 in12.4 mm
01:10 AM 50.2°F10.1°C 45.5°F7.5°C 84% 1.2 mph WSW1.9 kmh WSW 1.8 mph2.9 kmh 30.00 in1015.9 mb - 0.00 in0.0 mm 0.49 in12.4 mm
01:00 AM 49.8°F9.9°C 45.2°F7.3°C 84% 2.1 mph SSE3.4 kmh SSE 2.0 mph3.2 kmh 30.00 in1015.9 mb - 0.02 in0.5 mm 0.49 in12.4 mm
12:50 AM 50.2°F10.1°C 44.9°F7.2°C 82% 4.9 mph S7.9 kmh S 4.9 mph7.9 kmh 30.00 in1015.9 mb - 0.22 in5.6 mm 0.47 in11.9 mm
12:40 AM 50.4°F10.2°C 45.1°F7.3°C 82% 7.7 mph S12.4 kmh S 7.8 mph12.6 kmh 30.01 in1016.3 mb - 0.08 in2.0 mm 0.29 in7.4 mm
12:30 AM 50.9°F10.5°C 45.3°F7.4°C 81% 6.3 mph SW10.1 kmh SW 6.3 mph10.1 kmh 30.00 in1015.9 mb - 0.12 in3.0 mm 0.20 in5.1 mm
12:20 AM 52.7°F11.5°C 46.7°F8.2°C 80% 3.1 mph WSW5.0 kmh WSW 3.1 mph5.0 kmh 30.00 in1015.9 mb - 0.08 in2.0 mm 0.08 in2.0 mm
12:10 AM 55.2°F12.9°C 48.8°F9.3°C 79% 6.9 mph SW11.1 kmh SW 6.9 mph11.1 kmh 29.99 in1015.6 mb - 0.00 in0.0 mm 0.00 in0.0 mm
12:00 AM 55.0°F12.8°C 48.0°F8.9°C 77% 4.9 mph SW7.9 kmh SW 4.9 mph7.9 kmh 29.98 in1015.2 mb - 0.00 in0.0 mm 0.00 in0.0 mm